createdAt,value
2023-01-04T00:00:32.826Z,27.90
2023-01-04T00:03:20.705Z,23.00
2023-01-04T00:05:49.520Z,23.80
2023-01-04T00:08:17.326Z,29.10
2023-01-04T00:10:54.048Z,27.20
2023-01-04T00:13:21.921Z,28.90
2023-01-04T00:15:53.289Z,23.00
2023-01-04T00:18:21.313Z,27.10
2023-01-04T00:20:49.385Z,22.20
2023-01-04T00:23:17.224Z,25.30
2023-01-04T00:25:45.189Z,25.50
2023-01-04T00:28:13.177Z,23.20
2023-01-04T00:30:41.198Z,25.80
2023-01-04T00:33:09.234Z,29.80
2023-01-04T00:35:46.648Z,21.20
2023-01-04T00:38:14.840Z,25.00
2023-01-04T00:40:43.538Z,25.30
2023-01-04T00:43:11.979Z,30.50
2023-01-04T00:45:44.526Z,23.30
2023-01-04T00:48:18.188Z,29.10
2023-01-04T00:50:46.745Z,36.00
2023-01-04T00:53:21.745Z,30.30
2023-01-04T00:55:56.538Z,27.90
2023-01-04T00:58:24.594Z,34.20
2023-01-04T01:00:55.504Z,27.20
2023-01-04T01:03:23.492Z,31.00
2023-01-04T01:05:53.249Z,25.90
2023-01-04T01:08:27.462Z,29.90
2023-01-04T01:11:05.732Z,31.00
2023-01-04T01:13:37.108Z,23.70
2023-01-04T01:16:06.551Z,19.60
2023-01-04T01:18:35.736Z,25.40
2023-01-04T01:21:05.758Z,21.60
2023-01-04T01:23:33.687Z,25.20
2023-01-04T01:26:05.554Z,20.90
2023-01-04T01:28:34.246Z,28.50
2023-01-04T01:31:13.710Z,25.20
2023-01-04T01:33:42.908Z,23.50
2023-01-04T01:36:12.023Z,31.00
2023-01-04T01:38:44.695Z,21.50
2023-01-04T01:41:21.921Z,20.90
2023-01-04T01:43:53.619Z,16.20
2023-01-04T01:46:37.457Z,14.40
2023-01-04T01:49:18.391Z,27.70
2023-01-04T01:51:46.483Z,24.20
2023-01-04T01:54:16.839Z,18.10
2023-01-04T01:56:46.099Z,17.40
2023-01-04T01:59:15.716Z,21.00
2023-01-04T02:01:44.165Z,20.70
2023-01-04T02:04:14.080Z,19.40
2023-01-04T02:06:43.699Z,24.60
2023-01-04T02:09:15.914Z,26.40
2023-01-04T02:11:50.094Z,20.90
2023-01-04T02:14:28.172Z,23.70
2023-01-04T02:16:56.628Z,27.40
2023-01-04T02:19:35.919Z,21.10
2023-01-04T02:22:10.176Z,18.00
2023-01-04T02:24:40.926Z,18.20
2023-01-04T02:27:27.447Z,24.70
2023-01-04T02:30:10.522Z,20.40
2023-01-04T02:32:58.954Z,19.30
2023-01-04T02:40:36.305Z,24.40
2023-01-04T02:46:04.971Z,25.60
2023-01-04T02:48:58.849Z,28.70
2023-01-04T02:51:32.247Z,30.80
2023-01-04T02:57:19.268Z,20.80
2023-01-04T02:59:56.637Z,29.70
2023-01-04T03:02:47.971Z,25.30
2023-01-04T03:09:50.365Z,26.10
2023-01-04T03:12:35.504Z,24.90
2023-01-04T03:15:08.681Z,29.10
2023-01-04T03:17:59.199Z,30.10
2023-01-04T03:20:41.529Z,22.90
2023-01-04T03:23:51.434Z,26.40
2023-01-04T03:26:44.290Z,26.20
2023-01-04T03:29:54.313Z,29.20
2023-01-04T03:33:05.219Z,23.60
2023-01-04T03:35:38.832Z,27.30
2023-01-04T03:38:34.513Z,31.40
2023-01-04T03:41:24.878Z,23.70
2023-01-04T03:44:13.285Z,31.20
2023-01-04T03:47:10.393Z,31.30
2023-01-04T03:49:38.391Z,23.70
2023-01-04T03:52:07.849Z,20.60
2023-01-04T03:54:41.629Z,36.40
2023-01-04T03:57:10.262Z,34.80
2023-01-04T03:59:42.077Z,31.90
2023-01-04T04:02:14.333Z,25.20
2023-01-04T04:05:08.160Z,26.20
2023-01-04T04:07:54.987Z,27.70
2023-01-04T04:10:25.921Z,34.80
2023-01-04T04:12:54.334Z,30.00
2023-01-04T04:15:22.810Z,25.00
2023-01-04T04:17:50.875Z,28.20
2023-01-04T04:20:20.823Z,21.90
2023-01-04T04:22:48.919Z,30.50
2023-01-04T04:25:19.185Z,20.10
2023-01-04T04:27:47.286Z,35.60
2023-01-04T04:30:16.625Z,26.90
2023-01-04T04:32:44.952Z,23.60
2023-01-04T04:35:13.302Z,31.10
2023-01-04T04:37:41.381Z,30.10
2023-01-04T04:40:29.683Z,26.80
2023-01-04T04:42:57.854Z,18.70
2023-01-04T04:45:25.916Z,26.20
2023-01-04T04:47:59.266Z,26.80
2023-01-04T04:50:33.013Z,17.00
2023-01-04T04:53:28.416Z,25.20
2023-01-04T04:55:56.533Z,26.90
2023-01-04T05:02:05.741Z,30.20
2023-01-04T05:04:36.418Z,27.60
2023-01-04T05:07:10.609Z,25.00
2023-01-04T05:09:40.413Z,20.40
2023-01-04T05:12:29.332Z,22.30
2023-01-04T05:15:01.345Z,28.90
2023-01-04T05:17:29.233Z,33.70
2023-01-04T05:19:57.224Z,28.80
2023-01-04T05:22:25.257Z,31.90
2023-01-04T05:24:53.145Z,25.40
2023-01-04T05:27:20.961Z,29.10
2023-01-04T05:30:07.734Z,26.20
2023-01-04T05:32:35.716Z,18.60
2023-01-04T05:35:05.733Z,28.30
2023-01-04T05:37:37.439Z,25.30
2023-01-04T05:40:05.592Z,26.20
2023-01-04T05:42:36.597Z,29.00
2023-01-04T05:45:07.710Z,21.00
2023-01-04T05:47:38.768Z,31.10
2023-01-04T05:50:09.997Z,19.90
2023-01-04T05:52:38.088Z,30.10
2023-01-04T05:55:09.657Z,26.10
2023-01-04T05:57:40.228Z,24.90
2023-01-04T06:00:09.099Z,30.20
2023-01-04T06:02:44.111Z,24.20
2023-01-04T06:05:21.380Z,31.30
2023-01-04T06:07:49.589Z,28.10
2023-01-04T06:10:17.977Z,32.30
2023-01-04T06:12:50.123Z,24.70
2023-01-04T06:15:21.078Z,25.50
2023-01-04T06:17:48.997Z,24.00
2023-01-04T06:20:16.899Z,21.30
2023-01-04T06:22:44.833Z,22.90
2023-01-04T06:25:12.550Z,37.50
2023-01-04T06:27:40.711Z,42.20
2023-01-04T06:30:09.053Z,36.50
2023-01-04T06:32:36.807Z,38.80
2023-01-04T06:35:10.569Z,30.60
2023-01-04T06:37:38.537Z,62.80
2023-01-04T06:40:06.730Z,78.20
2023-01-04T06:42:46.882Z,49.40
2023-01-04T06:45:15.324Z,44.40
2023-01-04T06:47:43.665Z,61.30
2023-01-04T06:50:12.225Z,37.80
2023-01-04T06:52:46.788Z,44.20
2023-01-04T06:55:14.496Z,32.10
2023-01-04T06:57:42.225Z,33.20
2023-01-04T07:00:10.406Z,34.10
2023-01-04T07:02:38.499Z,29.50
2023-01-04T07:05:06.794Z,31.00
2023-01-04T07:07:35.484Z,47.20
2023-01-04T07:10:09.566Z,28.70
2023-01-04T07:12:38.484Z,69.90
2023-01-04T07:15:37.939Z,35.50
2023-01-04T07:17:54.309Z,36.30
2023-01-04T07:20:22.267Z,33.00
2023-01-04T07:22:50.073Z,64.70
2023-01-04T07:25:17.999Z,49.10
2023-01-04T07:27:50.265Z,41.20
2023-01-04T07:30:18.107Z,42.10
2023-01-04T07:32:45.876Z,36.20
2023-01-04T07:35:20.909Z,35.50
2023-01-04T07:37:53.740Z,47.40
2023-01-04T07:40:26.323Z,43.00
2023-01-04T07:42:58.338Z,32.80
2023-01-04T07:45:26.715Z,32.90
2023-01-04T07:47:54.426Z,33.20
2023-01-04T07:50:26.998Z,29.30
2023-01-04T07:52:54.831Z,31.30
2023-01-04T07:55:22.517Z,28.60
2023-01-04T07:57:52.994Z,31.10
2023-01-04T08:00:20.769Z,66.30
2023-01-04T08:02:49.261Z,73.70
2023-01-04T08:05:25.065Z,69.90
2023-01-04T08:07:59.842Z,82.20
2023-01-04T08:10:34.433Z,117.00
2023-01-04T08:13:06.225Z,57.60
2023-01-04T08:15:34.130Z,36.10
2023-01-04T08:18:02.024Z,24.50
2023-01-04T08:20:31.557Z,35.70
2023-01-04T08:22:59.510Z,29.60
2023-01-04T08:25:27.830Z,32.60
2023-01-04T08:27:55.803Z,32.70
2023-01-04T08:30:27.905Z,41.00
2023-01-04T08:32:56.112Z,47.10
2023-01-04T08:35:59.120Z,37.70
2023-01-04T08:39:02.211Z,35.30
2023-01-04T08:44:23.811Z,25.80
2023-01-04T08:46:52.757Z,33.10
2023-01-04T08:49:21.149Z,43.60
2023-01-04T08:51:55.586Z,38.60
2023-01-04T08:54:23.513Z,38.10
2023-01-04T08:56:51.402Z,43.30
2023-01-04T08:59:19.578Z,52.50
2023-01-04T09:01:47.536Z,47.10
2023-01-04T09:04:15.560Z,40.50
2023-01-04T09:06:43.408Z,41.50
2023-01-04T09:09:15.040Z,37.60
2023-01-04T09:11:43.988Z,54.80
2023-01-04T09:14:13.911Z,38.10
2023-01-04T09:16:44.463Z,46.10
2023-01-04T09:19:18.094Z,39.10
2023-01-04T09:21:51.064Z,40.10
2023-01-04T09:24:25.887Z,44.50
2023-01-04T09:26:53.654Z,43.80
2023-01-04T09:29:21.573Z,45.30
2023-01-04T09:31:49.373Z,49.00
2023-01-04T09:34:18.197Z,47.10
2023-01-04T09:36:47.397Z,33.10
2023-01-04T09:39:22.333Z,33.00
2023-01-04T09:41:55.156Z,39.40
2023-01-04T09:47:47.095Z,36.80
2023-01-04T09:50:24.903Z,43.50
2023-01-04T09:53:03.347Z,39.10
2023-01-04T09:55:39.757Z,48.30
2023-01-04T09:58:17.892Z,40.90
2023-01-04T10:00:47.842Z,38.00
2023-01-04T10:03:19.259Z,33.60
2023-01-04T10:05:47.951Z,32.60
2023-01-04T10:08:20.320Z,45.90
2023-01-04T10:11:00.784Z,43.70
2023-01-04T10:13:41.169Z,43.10
2023-01-04T10:16:30.436Z,37.50
2023-01-04T10:20:41.946Z,39.20
2023-01-04T10:22:12.326Z,35.50
2023-01-04T10:25:26.078Z,36.00
2023-01-04T10:28:10.601Z,36.40
2023-01-04T10:30:44.537Z,39.10
2023-01-04T10:35:43.655Z,42.70
2023-01-04T10:38:24.333Z,50.00
2023-01-04T10:40:54.519Z,43.80
2023-01-04T10:44:11.786Z,50.50
2023-01-04T10:46:40.729Z,38.60
2023-01-04T10:49:16.086Z,43.90
2023-01-04T10:51:54.118Z,38.40
2023-01-04T10:54:38.720Z,38.60
2023-01-04T10:57:12.302Z,37.40
2023-01-04T10:59:51.261Z,35.10
2023-01-04T11:02:22.276Z,34.60
2023-01-04T11:04:59.105Z,28.50
2023-01-04T11:07:31.553Z,38.80
2023-01-04T11:10:06.876Z,39.80
2023-01-04T11:12:34.769Z,39.50
2023-01-04T11:15:03.699Z,29.10
2023-01-04T11:17:35.990Z,30.50
2023-01-04T11:20:04.355Z,29.70
2023-01-04T11:22:32.243Z,38.40
2023-01-04T11:27:59.214Z,32.70
2023-01-04T11:30:51.390Z,36.40
2023-01-04T11:33:20.652Z,30.20
2023-01-04T11:35:59.687Z,30.80
2023-01-04T11:38:33.625Z,37.60
2023-01-04T11:41:07.659Z,28.60
2023-01-04T11:43:38.510Z,40.70
2023-01-04T11:46:18.761Z,36.00
2023-01-04T11:48:47.365Z,40.70
2023-01-04T11:51:18.068Z,28.30
2023-01-04T11:53:46.571Z,46.50
2023-01-04T11:56:16.666Z,36.30
2023-01-04T11:58:45.774Z,39.60
2023-01-04T12:01:24.386Z,46.60
2023-01-04T12:03:52.818Z,31.70
2023-01-04T12:06:38.059Z,35.80
2023-01-04T12:09:05.962Z,35.80
2023-01-04T12:11:35.740Z,31.30
2023-01-04T12:14:04.037Z,32.90
2023-01-04T12:16:48.349Z,31.10
2023-01-04T12:19:18.703Z,31.40
2023-01-04T12:21:48.703Z,30.80
2023-01-04T12:24:18.636Z,32.10
2023-01-04T12:26:46.854Z,33.70
2023-01-04T12:29:23.514Z,56.70
2023-01-04T12:32:16.134Z,30.80
2023-01-04T12:34:45.279Z,29.50
2023-01-04T12:37:40.581Z,28.90
2023-01-04T12:40:31.253Z,30.30
2023-01-04T12:43:15.005Z,31.10
2023-01-04T12:45:44.621Z,42.70
2023-01-04T12:48:47.380Z,45.40
2023-01-04T12:51:34.334Z,45.90
2023-01-04T12:54:04.125Z,36.30
2023-01-04T12:56:51.463Z,51.20
2023-01-04T12:59:33.840Z,36.10
2023-01-04T13:02:14.769Z,35.90
2023-01-04T13:04:43.664Z,34.50
2023-01-04T13:07:17.467Z,30.30
2023-01-04T13:10:52.084Z,33.70
2023-01-04T13:13:27.727Z,51.40
2023-01-04T13:16:02.123Z,30.10
2023-01-04T13:18:36.072Z,31.90
2023-01-04T13:21:12.513Z,27.20
2023-01-04T13:23:41.485Z,23.90
2023-01-04T13:26:29.367Z,27.10
2023-01-04T13:29:15.060Z,27.10
2023-01-04T13:31:48.828Z,29.50
2023-01-04T13:34:25.038Z,22.60
2023-01-04T13:37:11.538Z,35.50
2023-01-04T13:40:03.141Z,23.20
2023-01-04T13:42:33.322Z,27.80
2023-01-04T13:45:23.823Z,32.00
2023-01-04T13:47:57.630Z,32.80
2023-01-04T13:50:29.142Z,35.60
2023-01-04T13:53:06.949Z,22.70
2023-01-04T13:55:41.134Z,27.80
2023-01-04T13:58:17.939Z,25.80
2023-01-04T14:00:51.686Z,31.50
2023-01-04T14:03:30.053Z,25.40
2023-01-04T14:06:10.280Z,30.90
2023-01-04T14:08:51.198Z,24.40
2023-01-04T14:11:42.294Z,35.70
2023-01-04T14:14:22.067Z,28.90
2023-01-04T14:16:53.100Z,26.50
2023-01-04T14:19:42.051Z,79.80
2023-01-04T14:22:26.312Z,21.60
2023-01-04T14:25:09.047Z,29.40
2023-01-04T14:27:42.828Z,35.10
2023-01-04T14:30:20.527Z,36.00
2023-01-04T14:32:59.207Z,25.60
2023-01-04T14:35:28.011Z,25.30
2023-01-04T14:38:01.803Z,40.40
2023-01-04T14:40:33.642Z,22.50
2023-01-04T14:43:01.528Z,18.60
2023-01-04T14:45:29.255Z,25.60
2023-01-04T14:47:57.039Z,25.10
2023-01-04T14:50:28.496Z,24.00
2023-01-04T14:52:56.320Z,24.60
2023-01-04T14:55:25.184Z,21.70
2023-01-04T14:57:55.331Z,22.10
2023-01-04T15:00:23.435Z,23.40
2023-01-04T15:02:52.247Z,23.60
2023-01-04T15:05:20.780Z,23.60
2023-01-04T15:07:49.155Z,43.60
2023-01-04T15:10:24.661Z,32.60
2023-01-04T15:12:53.298Z,19.30
2023-01-04T15:15:21.426Z,30.80
2023-01-04T15:17:49.488Z,21.20
2023-01-04T15:20:17.453Z,25.80
2023-01-04T15:22:45.230Z,25.50
2023-01-04T15:25:13.214Z,22.80
2023-01-04T15:27:42.856Z,18.00
2023-01-04T15:30:12.255Z,20.40
2023-01-04T15:32:44.529Z,21.30
2023-01-04T15:35:16.501Z,19.00
2023-01-04T15:37:44.994Z,15.70
2023-01-04T15:40:14.784Z,16.90
2023-01-04T15:43:01.712Z,17.90
2023-01-04T15:45:39.490Z,14.90
2023-01-04T15:48:08.470Z,16.20
2023-01-04T15:50:39.923Z,19.40
2023-01-04T15:53:08.630Z,16.70
2023-01-04T15:55:37.576Z,14.60
2023-01-04T15:58:06.972Z,16.00
2023-01-04T16:00:34.826Z,16.00
2023-01-04T16:03:03.264Z,15.50
2023-01-04T16:05:31.379Z,13.60
2023-01-04T16:08:06.292Z,17.10
2023-01-04T16:10:34.362Z,13.70
2023-01-04T16:13:03.357Z,17.50
2023-01-04T16:15:31.410Z,13.40
2023-01-04T16:17:59.283Z,14.80
2023-01-04T16:20:27.141Z,17.20
2023-01-04T16:22:54.881Z,14.00
2023-01-04T16:25:22.572Z,11.70
2023-01-04T16:27:50.299Z,13.90
2023-01-04T16:30:22.079Z,13.90
2023-01-04T16:32:52.693Z,14.20
2023-01-04T16:35:20.938Z,13.90
2023-01-04T16:37:48.816Z,29.70
2023-01-04T16:40:16.629Z,26.50
2023-01-04T16:42:50.800Z,20.40
2023-01-04T16:45:19.309Z,31.80
2023-01-04T16:47:49.430Z,26.70
2023-01-04T16:50:18.594Z,34.00
2023-01-04T16:52:46.482Z,38.60
2023-01-04T16:55:23.811Z,27.60
2023-01-04T16:57:52.420Z,39.30
2023-01-04T17:00:21.364Z,24.10
2023-01-04T17:02:49.578Z,19.90
2023-01-04T17:05:17.457Z,19.90
2023-01-04T17:07:45.364Z,10.50
2023-01-04T17:10:13.341Z,16.00
2023-01-04T17:12:49.162Z,13.30
2023-01-04T17:18:06.228Z,9.50
2023-01-04T17:20:34.066Z,10.20
2023-01-04T17:23:01.907Z,16.30
2023-01-04T17:25:29.619Z,14.30
2023-01-04T17:27:57.523Z,12.00
2023-01-04T17:30:25.283Z,12.70
2023-01-04T17:32:53.322Z,11.80
2023-01-04T17:35:21.331Z,16.40
2023-01-04T17:37:51.292Z,11.00
2023-01-04T17:40:23.221Z,9.20
2023-01-04T17:42:52.743Z,10.60
2023-01-04T17:45:20.941Z,11.40
2023-01-04T17:47:49.822Z,10.10
2023-01-04T17:50:19.518Z,8.90
2023-01-04T17:52:48.111Z,8.30
2023-01-04T17:55:16.309Z,10.00
2023-01-04T17:57:44.283Z,11.40
2023-01-04T18:00:15.025Z,12.20
2023-01-04T18:02:43.489Z,10.60
2023-01-04T18:05:12.053Z,9.60
2023-01-04T18:07:40.416Z,8.70
2023-01-04T18:10:20.525Z,11.00
2023-01-04T18:12:49.027Z,8.50
2023-01-04T18:15:22.292Z,8.40
2023-01-04T18:17:51.682Z,8.70
2023-01-04T18:20:24.689Z,9.20
2023-01-04T18:22:54.310Z,7.80
2023-01-04T18:25:22.109Z,9.00
2023-01-04T18:27:49.912Z,9.50
2023-01-04T18:30:17.858Z,10.90
2023-01-04T18:32:45.560Z,14.10
2023-01-04T18:35:13.661Z,10.70
2023-01-04T18:37:43.593Z,9.20
2023-01-04T18:40:11.611Z,7.30
2023-01-04T18:42:39.426Z,10.40
2023-01-04T18:45:07.562Z,6.70
2023-01-04T18:47:35.202Z,6.50
2023-01-04T18:50:03.037Z,10.40
2023-01-04T18:52:30.911Z,6.90
2023-01-04T18:55:06.077Z,6.30
2023-01-04T18:57:41.065Z,8.50
2023-01-04T19:00:15.927Z,5.80
2023-01-04T19:02:47.853Z,8.80
2023-01-04T19:05:23.404Z,6.70
2023-01-04T19:07:52.897Z,6.10
2023-01-04T19:10:21.819Z,6.80
2023-01-04T19:12:49.674Z,9.60
2023-01-04T19:15:20.253Z,9.00
2023-01-04T19:17:48.028Z,8.50
2023-01-04T19:20:15.954Z,7.60
2023-01-04T19:22:43.853Z,8.10
2023-01-04T19:25:11.726Z,7.60
2023-01-04T19:27:43.528Z,8.60
2023-01-04T19:30:11.718Z,8.10
2023-01-04T19:32:39.821Z,9.90
2023-01-04T19:35:07.663Z,8.20
2023-01-04T19:37:35.602Z,9.30
2023-01-04T19:40:05.756Z,10.60
2023-01-04T19:42:35.366Z,10.70
2023-01-04T19:45:04.377Z,9.30
2023-01-04T19:47:32.397Z,9.40
2023-01-04T19:50:00.278Z,16.10
2023-01-04T19:52:34.662Z,22.80
2023-01-04T19:55:03.245Z,24.10
2023-01-04T19:57:33.989Z,21.30
2023-01-04T20:00:01.970Z,15.80
2023-01-04T20:02:29.913Z,13.30
2023-01-04T20:04:59.206Z,12.90
2023-01-04T20:07:27.731Z,11.40
2023-01-04T20:09:55.630Z,17.10
2023-01-04T20:12:23.652Z,12.90
2023-01-04T20:14:52.128Z,12.20
2023-01-04T20:17:20.409Z,10.60
2023-01-04T20:19:48.568Z,13.90
2023-01-04T20:22:16.407Z,10.60
2023-01-04T20:24:44.500Z,13.10
2023-01-04T20:27:14.989Z,13.20
2023-01-04T20:29:45.305Z,11.50
2023-01-04T20:32:20.128Z,12.90
2023-01-04T20:34:49.553Z,12.50
2023-01-04T20:37:17.307Z,10.10
2023-01-04T20:39:48.181Z,11.60
2023-01-04T20:42:34.622Z,12.30
2023-01-04T20:45:02.938Z,12.70
2023-01-04T20:47:31.434Z,14.50
2023-01-04T20:50:00.429Z,12.20
2023-01-04T20:52:28.423Z,16.80
2023-01-04T20:54:56.245Z,13.80
2023-01-04T20:57:25.388Z,13.60
2023-01-04T20:59:53.590Z,12.60
2023-01-04T21:02:21.483Z,16.30
2023-01-04T21:04:49.936Z,17.20
2023-01-04T21:07:18.296Z,16.50
2023-01-04T21:09:46.033Z,14.20
2023-01-04T21:12:15.425Z,15.10
2023-01-04T21:14:43.717Z,14.70
2023-01-04T21:17:12.127Z,16.00
2023-01-04T21:19:40.353Z,12.40
2023-01-04T21:22:08.354Z,16.70
2023-01-04T21:24:36.763Z,16.60
2023-01-04T21:27:04.888Z,12.70
2023-01-04T21:29:33.523Z,14.50
2023-01-04T21:32:01.493Z,13.60
2023-01-04T21:34:32.733Z,16.60
2023-01-04T21:37:00.968Z,16.40
2023-01-04T21:39:36.439Z,13.50
2023-01-04T21:42:08.170Z,26.20
2023-01-04T21:44:36.278Z,14.00
2023-01-04T21:47:08.713Z,14.30
2023-01-04T21:49:44.286Z,12.00
2023-01-04T21:52:13.138Z,14.60
2023-01-04T21:54:41.297Z,11.70
2023-01-04T21:57:09.267Z,10.80
2023-01-04T21:59:37.265Z,8.80
2023-01-04T22:02:25.136Z,15.20
2023-01-04T22:04:54.405Z,15.10
2023-01-04T22:07:22.159Z,12.40
2023-01-04T22:09:55.386Z,8.50
2023-01-04T22:12:25.443Z,14.80
2023-01-04T22:14:53.743Z,10.20
2023-01-04T22:17:21.632Z,8.70
2023-01-04T22:19:56.700Z,9.60
2023-01-04T22:22:30.136Z,7.20
2023-01-04T22:24:58.614Z,8.80
2023-01-04T22:27:26.565Z,10.10
2023-01-04T22:29:56.323Z,10.30
2023-01-04T22:32:24.081Z,6.80
2023-01-04T22:34:52.143Z,7.70
2023-01-04T22:37:20.186Z,7.50
2023-01-04T22:39:48.025Z,7.10
2023-01-04T22:42:16.001Z,7.90
2023-01-04T22:44:43.901Z,7.40
2023-01-04T22:47:11.733Z,8.20
2023-01-04T22:49:39.521Z,8.10
2023-01-04T22:52:07.466Z,7.10
2023-01-04T22:54:35.963Z,6.90
2023-01-04T22:57:04.222Z,6.80
2023-01-04T22:59:31.890Z,9.50
2023-01-04T23:01:59.859Z,7.20
2023-01-04T23:04:28.214Z,8.60
2023-01-04T23:06:56.189Z,8.30
2023-01-04T23:09:24.784Z,8.30
2023-01-04T23:11:52.980Z,9.10
2023-01-04T23:14:20.831Z,9.40
2023-01-04T23:16:48.758Z,7.50
2023-01-04T23:19:16.663Z,7.70
2023-01-04T23:21:44.343Z,9.40
2023-01-04T23:24:14.038Z,8.80
2023-01-04T23:26:42.343Z,7.90
2023-01-04T23:29:13.165Z,8.70
2023-01-04T23:31:41.077Z,8.70
2023-01-04T23:34:15.812Z,9.50
2023-01-04T23:36:43.566Z,9.20
2023-01-04T23:39:15.453Z,12.20
2023-01-04T23:41:46.543Z,11.40
2023-01-04T23:44:17.573Z,6.60
2023-01-04T23:46:45.788Z,7.10
2023-01-04T23:49:13.922Z,7.60
2023-01-04T23:51:42.823Z,8.60
2023-01-04T23:54:10.902Z,7.60
2023-01-04T23:56:39.213Z,9.00
2023-01-04T23:59:11.039Z,5.80
